Christchurch International Airport
NZCH : now visible

Airfield :











YOU CAN JOIN US ON...

 
LOGIN :

Register | Disclaimer

   EN    FR    IT 

 









Legend :    VFR   Marginal VFR   IFR   Intensive IFR   Very Intensive IFR
Visi :
Ceiling :
>= 8 km
>= 3000ft
5 to 8 km
1000 to 3000 ft
1500m to 5 km
500 to 1000 ft
800 to 1500m
200 to 500 ft
< 800m
< 200 ft
Symbols :   Thunderstorms  Fog  Heavy snow  Heavy precipitations  Wind > 20 kt






- Airport Elevation : 123 ft
- IATA code : CHC


NZCH - Christchurch International

CURRENT METAR :
  • 141700Z AUTO 23002KT 9999 SCT037/// 01/00 Q1025 NOSIG

EXPIRED METARs :
  • 141630Z AUTO 27004KT 9999 FEW005/// 02/02 Q1025 NOSIG
  • 141600Z AUTO 26004KT 9999 OVC004/// 01/01 Q1025 BECMG SCT004 TEMPO BKN004
  • 141530Z AUTO 23004KT 9999 BKN003/// 00/00 Q1025 BECMG SCT004 TEMPO BKN003
  • 141500Z AUTO 25004KT 7000 BKN004/// 00/M01 Q1025 BECMG 9999 NSW SCT004 TEMPO BKN004
  • 141430Z AUTO 23004KT 200V260 7000 NCD M01/M02 Q1025 BECMG 9999 NSW

TAF TAF NZCH
Valid from the 14 at 12:00 until the 15 at 12:00 UTC


141103Z 1412/1512 VRB02KT 9999 FEW020
TEMPO 1412/1414 0600 FG
FM141600 24010KT 9999 BKN020
TEMPO 1422/1506 6000 SHRA
BECMG 1500/1502 06005KT
TEMPO 1506/1512 4000 DZ BKN008
NZZC FIR / Oceania



MET'MAP, your aeronautical weather chart ! - Copyright ORBIFLY December 2007 - Disclaimer

ORBIFLY MET'MAP TEAM :

Programming & Development : Alexandra Zaïnal
Concept & original design : Baudouin d'Aumeries
Assistance for programming : Marc-Olivier Méhu
Technical & hardware support : Manuel Goepfert

Contact : metmap@orbifly.com




SOURCES & CREDITS :

   NOAA       Earth
Advisory